Wednesday, December 12, 2018, 11:35 PM EST
Back to Local

KPOU, Poughkeepsie Dutchess Cty

Location: Wappingers Falls, NY, United States Lat: 41.633
Local Time: 11:35 PM EST ( 4:35 GMT) Lon: -73.883
Time Zone: US/Eastern Elev: 167 ft

Show me the last for .
Show Decoded

2018-12-12 22:53 METAR KPOU 130353Z AUTO 00000KT 9SM CLR M04/M07 A3026 RMK AO2 SLP247 T10441072 =
2018-12-12 21:53 METAR KPOU 130253Z AUTO 00000KT 10SM CLR M05/M08 A3026 RMK AO2 SLP245 T10501078
                 51018 =
2018-12-12 20:53 METAR KPOU 130153Z AUTO 00000KT 10SM CLR M04/M08 A3024 RMK AO2 SLP238 T10441078
                 =
2018-12-12 19:53 METAR KPOU 130053Z 00000KT 10SM CLR M03/M07 A3023 RMK AO2 SLP235 T10281072 =
2018-12-12 18:53 METAR KPOU 122353Z 00000KT 10SM CLR M02/M07 A3020 RMK AO2 SLP226 T10171067 10044
                 21017 53022 =
2018-12-12 17:53 METAR KPOU 122253Z 36004KT 10SM FEW046 01/M07 A3018 RMK AO2 SLP219 T00061067 =
2018-12-12 16:53 METAR KPOU 122153Z 29006KT 10SM OVC047 02/M07 A3015 RMK AO2 SLP210 T00171067 =
2018-12-12 15:53 METAR KPOU 122053Z 26005KT 10SM FEW048 02/M07 A3014 RMK AO2 SLP204 T00221072
                 53012 =
2018-12-12 14:53 METAR KPOU 121953Z 26007KT 10SM OVC047 03/M07 A3012 RMK AO2 SLP199 T00331072 =
2018-12-12 13:53 METAR KPOU 121853Z 29005KT 10SM CLR 04/M07 A3010 RMK AO2 SLP192 T00391067 =
2018-12-12 12:53 METAR KPOU 121753Z 00000KT 10SM SCT047 03/M06 A3010 RMK AO2 SLP192 T00281061
                 10033 21072 58005 =
2018-12-12 11:53 METAR KPOU 121653Z 06004KT 10SM OVC049 02/M06 A3010 RMK AO2 SLP192 T00221056 =
2018-12-12 10:53 METAR KPOU 121553Z 25003KT 10SM OVC055 01/M06 A3012 RMK AO2 SLP199 T00111061 =
2018-12-12 09:53 METAR KPOU 121453Z 00000KT 10SM CLR 00/M06 A3012 RMK AO2 SLP197 T00001056 53025
                 =
2018-12-12 08:53 METAR KPOU 121353Z 00000KT 8SM CLR M03/M07 A3009 RMK AO2 SLP188 T10331067 =
2018-12-12 07:53 METAR KPOU 121253Z 00000KT 7SM CLR M07/M08 A3006 RMK AO2 SLP179 T10671083 =
2018-12-12 06:53 METAR KPOU 121153Z AUTO 00000KT 9SM CLR M07/M09 A3004 RMK AO2 SLP172 T10671089
                 11017 21072 53020 =
2018-12-12 05:53 METAR KPOU 121053Z AUTO 00000KT 9SM CLR M06/M08 A3002 RMK AO2 SLP163 T10561083 =
2018-12-12 04:53 METAR KPOU 120953Z AUTO 00000KT 10SM OVC070 M03/M07 A2999 RMK AO2 SLP154
                 T10331067 =
2018-12-12 03:53 METAR KPOU 120853Z AUTO 00000KT 10SM OVC070 M03/M07 A2998 RMK AO2 SLP151
                 T10331067 51010 =
2018-12-12 02:53 METAR KPOU 120753Z AUTO 00000KT 10SM OVC075 M03/M07 A2998 RMK AO2 SLP150
                 T10281067 =
2018-12-12 01:53 METAR KPOU 120653Z AUTO 00000KT 10SM OVC070 M03/M06 A2996 RMK AO2 SLP144
                 T10281061 =
2018-12-12 00:53 METAR KPOU 120553Z AUTO 00000KT 10SM OVC070 M02/M07 A2995 RMK AO2 SLP141
                 T10171072 11017 21050 55003 =
2018-12-11 23:53 METAR KPOU 120453Z AUTO 24004KT 10SM OVC060 M02/M07 A2995 RMK AO2 SLP140
                 T10221067 400281106 =

Support USWX by starting your Amazon purchase here.